createdAt,value
2022-12-15T00:00:05.455Z,109.70
2022-12-15T00:01:05.506Z,107.70
2022-12-15T00:02:05.487Z,111.50
2022-12-15T00:03:05.635Z,107.60
2022-12-15T00:04:05.418Z,109.90
2022-12-15T00:05:05.371Z,110.30
2022-12-15T00:06:05.347Z,103.10
2022-12-15T00:07:05.359Z,112.00
2022-12-15T00:08:05.306Z,106.50
2022-12-15T00:09:07.543Z,105.10
2022-12-15T00:10:05.270Z,111.20
2022-12-15T00:11:05.254Z,111.10
2022-12-15T00:12:05.235Z,110.40
2022-12-15T00:13:05.212Z,104.20
2022-12-15T00:14:05.197Z,115.40
2022-12-15T00:15:05.176Z,112.90
2022-12-15T00:16:05.210Z,108.80
2022-12-15T00:17:05.137Z,112.00
2022-12-15T00:18:05.120Z,108.00
2022-12-15T00:19:05.126Z,110.90
2022-12-15T00:20:05.087Z,107.40
2022-12-15T00:21:05.067Z,107.00
2022-12-15T00:22:05.047Z,108.10
2022-12-15T00:23:05.028Z,104.50
2022-12-15T00:24:05.009Z,105.00
2022-12-15T00:25:04.990Z,109.60
2022-12-15T00:26:04.984Z,107.40
2022-12-15T00:27:04.960Z,111.00
2022-12-15T00:28:04.935Z,110.10
2022-12-15T00:29:06.023Z,106.30
2022-12-15T00:30:04.987Z,109.60
2022-12-15T00:31:04.923Z,105.30
2022-12-15T00:32:04.859Z,107.50
2022-12-15T00:33:04.848Z,107.20
2022-12-15T00:34:04.824Z,107.10
2022-12-15T00:35:04.808Z,109.70
2022-12-15T00:36:04.785Z,108.80
2022-12-15T00:37:04.769Z,110.50
2022-12-15T00:38:04.753Z,109.60
2022-12-15T00:39:04.731Z,109.00
2022-12-15T00:40:04.734Z,110.50
2022-12-15T00:41:04.695Z,110.30
2022-12-15T00:42:04.688Z,111.20
2022-12-15T00:43:04.654Z,110.60
2022-12-15T00:44:04.647Z,108.10
2022-12-15T00:45:04.622Z,108.20
2022-12-15T00:46:04.681Z,104.60
2022-12-15T00:47:04.703Z,105.10
2022-12-15T00:48:04.593Z,106.00
2022-12-15T00:49:04.576Z,102.50
2022-12-15T00:50:04.531Z,103.90
2022-12-15T00:51:04.511Z,106.30
2022-12-15T00:52:04.486Z,104.00
2022-12-15T00:53:04.469Z,104.90
2022-12-15T00:54:04.456Z,105.00
2022-12-15T00:55:04.436Z,106.90
2022-12-15T00:56:04.419Z,104.60
2022-12-15T00:57:04.399Z,108.20
2022-12-15T00:58:04.380Z,105.40
2022-12-15T00:59:04.359Z,107.70
2022-12-15T01:00:04.361Z,108.10
2022-12-15T01:01:04.325Z,106.90
2022-12-15T01:02:04.430Z,105.30
2022-12-15T01:03:04.520Z,107.90
2022-12-15T01:04:04.299Z,103.00
2022-12-15T01:05:04.261Z,108.80
2022-12-15T01:06:04.230Z,109.10
2022-12-15T01:07:04.217Z,103.80
2022-12-15T01:08:04.196Z,104.60
2022-12-15T01:09:04.177Z,109.40
2022-12-15T01:10:04.160Z,106.40
2022-12-15T01:11:04.137Z,104.90
2022-12-15T01:12:04.119Z,105.50
2022-12-15T01:13:04.099Z,101.70
2022-12-15T01:14:04.086Z,102.90
2022-12-15T01:15:04.062Z,101.00
2022-12-15T01:16:04.120Z,105.40
2022-12-15T01:17:04.027Z,107.00
2022-12-15T01:18:04.006Z,104.90
2022-12-15T01:19:03.991Z,106.20
2022-12-15T01:20:03.967Z,104.90
2022-12-15T01:21:03.954Z,106.10
2022-12-15T01:22:03.944Z,106.70
2022-12-15T01:23:03.923Z,108.80
2022-12-15T01:24:03.902Z,107.00
2022-12-15T01:25:03.886Z,101.70
2022-12-15T01:26:03.867Z,108.80
2022-12-15T01:27:03.842Z,107.90
2022-12-15T01:28:03.825Z,109.40
2022-12-15T01:29:03.808Z,109.00
2022-12-15T01:30:03.791Z,105.30
2022-12-15T01:31:04.084Z,106.40
2022-12-15T01:32:03.755Z,108.60
2022-12-15T01:33:03.731Z,103.90
2022-12-15T01:34:03.718Z,103.20
2022-12-15T01:35:03.692Z,101.00
2022-12-15T01:36:03.677Z,106.70
2022-12-15T01:37:03.659Z,107.40
2022-12-15T01:38:03.642Z,101.30
2022-12-15T01:39:03.628Z,100.50
2022-12-15T01:40:03.616Z,104.00
2022-12-15T01:41:03.582Z,103.40
2022-12-15T01:42:03.591Z,102.00
2022-12-15T01:43:03.558Z,101.90
2022-12-15T01:44:03.528Z,101.40
2022-12-15T01:45:03.611Z,103.40
2022-12-15T01:46:03.492Z,104.70
2022-12-15T01:47:03.525Z,106.50
2022-12-15T01:48:03.451Z,101.10
2022-12-15T01:49:03.434Z,106.90
2022-12-15T01:50:03.418Z,105.90
2022-12-15T01:51:03.397Z,103.60
2022-12-15T01:52:03.383Z,102.30
2022-12-15T01:53:03.367Z,102.00
2022-12-15T01:54:03.349Z,103.00
2022-12-15T01:55:03.324Z,106.60
2022-12-15T01:56:03.305Z,107.10
2022-12-15T01:57:03.284Z,108.20
2022-12-15T01:58:03.271Z,108.80
2022-12-15T01:59:03.255Z,109.60
2022-12-15T02:00:03.233Z,108.50
2022-12-15T02:01:03.296Z,105.50
2022-12-15T02:02:03.372Z,103.70
2022-12-15T02:03:03.302Z,106.10
2022-12-15T02:04:03.161Z,103.90
2022-12-15T02:05:03.141Z,106.50
2022-12-15T02:06:03.117Z,103.70
2022-12-15T02:07:03.106Z,107.90
2022-12-15T02:08:03.081Z,106.90
2022-12-15T02:09:03.071Z,101.80
2022-12-15T02:10:03.166Z,107.70
2022-12-15T02:11:03.034Z,102.20
2022-12-15T02:12:03.006Z,105.10
2022-12-15T02:13:02.989Z,103.90
2022-12-15T02:14:02.968Z,99.50
2022-12-15T02:15:02.950Z,102.20
2022-12-15T02:16:03.009Z,99.30
2022-12-15T02:17:02.923Z,102.70
2022-12-15T02:18:02.900Z,103.70
2022-12-15T02:19:02.903Z,104.40
2022-12-15T02:20:02.859Z,106.70
2022-12-15T02:21:02.843Z,107.00
2022-12-15T02:22:02.820Z,109.10
2022-12-15T02:23:02.821Z,107.30
2022-12-15T02:24:02.783Z,112.70
2022-12-15T02:25:02.764Z,110.10
2022-12-15T02:26:02.745Z,112.10
2022-12-15T02:27:02.729Z,108.30
2022-12-15T02:28:02.714Z,105.90
2022-12-15T02:29:02.692Z,107.10
2022-12-15T02:30:02.673Z,105.10
2022-12-15T02:31:02.655Z,107.50
2022-12-15T02:32:02.685Z,106.00
2022-12-15T02:33:02.619Z,103.90
2022-12-15T02:34:02.600Z,103.30
2022-12-15T02:35:02.581Z,105.50
2022-12-15T02:36:02.616Z,102.80
2022-12-15T02:37:02.562Z,104.20
2022-12-15T02:38:02.521Z,100.60
2022-12-15T02:39:02.508Z,103.20
2022-12-15T02:40:02.488Z,103.90
2022-12-15T02:41:02.467Z,106.70
2022-12-15T02:42:02.449Z,103.60
2022-12-15T02:43:02.429Z,103.30
2022-12-15T02:44:02.412Z,102.80
2022-12-15T02:45:02.392Z,101.00
2022-12-15T02:46:02.416Z,104.60
2022-12-15T02:47:02.357Z,101.70
2022-12-15T02:48:02.341Z,99.60
2022-12-15T02:49:02.318Z,98.10
2022-12-15T02:50:02.310Z,104.80
2022-12-15T02:51:02.279Z,103.60
2022-12-15T02:52:02.263Z,104.30
2022-12-15T02:53:02.238Z,102.80
2022-12-15T02:54:02.227Z,103.30
2022-12-15T02:55:02.247Z,100.50
2022-12-15T02:56:02.185Z,102.10
2022-12-15T02:57:02.168Z,101.60
2022-12-15T02:58:02.192Z,96.00
2022-12-15T02:59:02.133Z,94.00
2022-12-15T03:00:02.110Z,97.80
2022-12-15T03:01:02.133Z,98.40
2022-12-15T03:02:02.225Z,93.20
2022-12-15T03:03:02.177Z,93.30
2022-12-15T03:04:02.042Z,92.20
2022-12-15T03:05:02.039Z,94.00
2022-12-15T03:06:01.999Z,96.60
2022-12-15T03:07:01.989Z,99.00
2022-12-15T03:08:01.967Z,92.80
2022-12-15T03:09:01.944Z,95.30
2022-12-15T03:10:01.929Z,91.00
2022-12-15T03:11:01.943Z,91.60
2022-12-15T03:12:01.895Z,93.90
2022-12-15T03:13:01.870Z,97.20
2022-12-15T03:14:01.861Z,97.00
2022-12-15T03:15:01.845Z,93.40
2022-12-15T03:16:01.900Z,96.20
2022-12-15T03:17:01.807Z,96.30
2022-12-15T03:18:01.783Z,92.60
2022-12-15T03:19:01.790Z,94.30
2022-12-15T03:20:01.743Z,96.10
2022-12-15T03:21:01.724Z,98.80
2022-12-15T03:22:01.704Z,98.70
2022-12-15T03:23:01.691Z,99.30
2022-12-15T03:24:01.672Z,98.50
2022-12-15T03:25:01.652Z,94.50
2022-12-15T03:26:01.627Z,97.50
2022-12-15T03:27:01.613Z,96.10
2022-12-15T03:28:01.592Z,98.70
2022-12-15T03:29:01.574Z,106.40
2022-12-15T03:30:01.555Z,108.30
2022-12-15T03:31:01.556Z,103.90
2022-12-15T03:32:01.582Z,105.90
2022-12-15T03:33:01.501Z,103.40
2022-12-15T03:34:01.500Z,106.20
2022-12-15T03:35:01.465Z,102.90
2022-12-15T03:36:01.447Z,104.20
2022-12-15T03:37:01.429Z,104.50
2022-12-15T03:38:01.410Z,108.90
2022-12-15T03:39:01.393Z,111.80
2022-12-15T03:40:01.372Z,118.00
2022-12-15T03:41:01.359Z,126.90
2022-12-15T03:42:01.345Z,134.70
2022-12-15T03:43:01.325Z,126.20
2022-12-15T03:44:01.306Z,133.40
2022-12-15T03:45:01.287Z,136.80
2022-12-15T03:46:01.346Z,151.80
2022-12-15T03:47:03.540Z,142.60
2022-12-15T03:48:01.231Z,147.20
2022-12-15T03:49:01.213Z,142.90
2022-12-15T03:50:01.191Z,148.20
2022-12-15T03:51:01.173Z,144.70
2022-12-15T03:52:01.208Z,140.40
2022-12-15T03:53:01.142Z,130.50
2022-12-15T03:54:01.121Z,137.70
2022-12-15T03:55:01.104Z,132.70
2022-12-15T03:56:01.084Z,137.40
2022-12-15T03:57:01.208Z,131.50
2022-12-15T03:58:01.046Z,127.20
2022-12-15T03:59:01.030Z,146.30
2022-12-15T04:00:01.014Z,144.80
2022-12-15T04:01:01.002Z,136.00
2022-12-15T04:02:01.281Z,132.10
2022-12-15T04:03:01.096Z,139.90
2022-12-15T04:04:01.673Z,151.60
2022-12-15T04:05:00.920Z,152.80
2022-12-15T04:06:00.905Z,147.00
2022-12-15T04:07:00.890Z,153.80
2022-12-15T04:08:00.866Z,145.50
2022-12-15T04:09:00.851Z,151.50
2022-12-15T04:10:00.835Z,161.20
2022-12-15T04:11:00.814Z,182.00
2022-12-15T04:12:00.799Z,170.00
2022-12-15T04:13:00.778Z,162.60
2022-12-15T04:14:00.767Z,165.30
2022-12-15T04:15:00.743Z,163.20
2022-12-15T04:16:00.725Z,235.40
2022-12-15T04:17:00.730Z,197.70
2022-12-15T04:18:00.694Z,154.90
2022-12-15T04:19:00.684Z,155.10
2022-12-15T04:20:00.653Z,172.50
2022-12-15T04:21:00.632Z,189.10
2022-12-15T04:22:00.622Z,170.30
2022-12-15T04:23:00.605Z,176.80
2022-12-15T04:24:00.588Z,159.50
2022-12-15T04:25:00.571Z,162.30
2022-12-15T04:26:00.546Z,171.90
2022-12-15T04:27:00.538Z,155.30
2022-12-15T04:28:01.810Z,156.60
2022-12-15T04:29:00.500Z,158.10
2022-12-15T04:30:00.475Z,150.40
2022-12-15T04:31:00.523Z,146.70
2022-12-15T04:32:00.439Z,149.10
2022-12-15T04:33:00.421Z,156.60
2022-12-15T04:34:00.406Z,159.10
2022-12-15T04:35:00.386Z,151.40
2022-12-15T04:36:00.370Z,155.50
2022-12-15T04:37:00.349Z,145.60
2022-12-15T04:38:00.333Z,143.80
2022-12-15T04:39:00.318Z,141.60
2022-12-15T04:40:00.301Z,144.80
2022-12-15T04:41:00.286Z,136.80
2022-12-15T04:42:00.264Z,134.90
2022-12-15T04:43:00.245Z,132.80
2022-12-15T04:44:00.225Z,135.40
2022-12-15T04:45:00.209Z,135.10
2022-12-15T04:46:00.334Z,144.60
2022-12-15T04:47:00.174Z,147.20
2022-12-15T04:48:00.155Z,133.80
2022-12-15T04:49:00.138Z,141.10
2022-12-15T04:50:00.129Z,135.30
2022-12-15T04:51:00.103Z,136.10
2022-12-15T04:52:00.095Z,145.90
2022-12-15T04:53:00.101Z,144.30
2022-12-15T04:54:00.055Z,150.50
2022-12-15T04:55:00.031Z,147.00
2022-12-15T04:56:00.032Z,141.30
2022-12-15T04:56:59.995Z,138.80
2022-12-15T04:57:59.981Z,133.40
2022-12-15T04:58:59.960Z,138.00
2022-12-15T04:59:59.942Z,132.70
2022-12-15T05:00:59.988Z,138.90
2022-12-15T05:01:59.963Z,145.40
2022-12-15T05:02:59.891Z,140.00
2022-12-15T05:03:59.870Z,148.90
2022-12-15T05:04:59.854Z,145.20
2022-12-15T05:05:59.838Z,145.90
2022-12-15T05:06:59.837Z,143.30
2022-12-15T05:07:59.825Z,149.00
2022-12-15T05:08:59.783Z,145.80
2022-12-15T05:10:03.268Z,149.40
2022-12-15T05:10:59.747Z,149.50
2022-12-15T05:11:59.730Z,150.10
2022-12-15T05:12:59.733Z,148.50
2022-12-15T05:13:59.694Z,147.30
2022-12-15T05:14:59.675Z,199.40
2022-12-15T05:15:59.718Z,171.90
2022-12-15T05:16:59.713Z,165.20
2022-12-15T05:17:59.647Z,177.30
2022-12-15T05:18:59.603Z,171.20
2022-12-15T05:19:59.606Z,167.20
2022-12-15T05:20:59.567Z,168.10
2022-12-15T05:21:59.550Z,161.40
2022-12-15T05:22:59.537Z,161.10
2022-12-15T05:23:59.514Z,165.80
2022-12-15T05:24:59.498Z,146.50
2022-12-15T05:25:59.480Z,149.60
2022-12-15T05:26:59.461Z,148.40
2022-12-15T05:27:59.443Z,183.20
2022-12-15T05:28:59.425Z,202.90
2022-12-15T05:29:59.408Z,166.20
2022-12-15T05:30:59.440Z,165.40
2022-12-15T05:31:59.371Z,170.00
2022-12-15T05:32:59.351Z,165.20
2022-12-15T05:34:04.700Z,154.40
2022-12-15T05:34:59.321Z,146.30
2022-12-15T05:35:59.297Z,145.50
2022-12-15T05:36:59.283Z,140.40
2022-12-15T05:37:59.268Z,137.30
2022-12-15T05:38:59.248Z,143.00
2022-12-15T05:39:59.232Z,143.70
2022-12-15T05:40:59.212Z,143.20
2022-12-15T05:41:59.197Z,154.00
2022-12-15T05:42:59.174Z,150.00
2022-12-15T05:43:59.161Z,145.80
2022-12-15T05:44:59.142Z,140.70
2022-12-15T05:45:59.171Z,143.80
2022-12-15T05:46:59.107Z,139.30
2022-12-15T05:47:59.097Z,133.30
2022-12-15T05:48:59.069Z,136.40
2022-12-15T05:49:59.053Z,129.00
2022-12-15T05:50:59.035Z,128.10
2022-12-15T05:51:59.019Z,128.90
2022-12-15T05:52:59.211Z,132.50
2022-12-15T05:53:58.989Z,133.00
2022-12-15T05:54:58.966Z,129.20
2022-12-15T05:55:58.948Z,136.70
2022-12-15T05:56:58.927Z,130.10
2022-12-15T05:57:58.915Z,134.50
2022-12-15T05:58:58.894Z,131.90
2022-12-15T05:59:58.877Z,129.80
2022-12-15T06:00:58.862Z,124.00
2022-12-15T06:01:58.930Z,126.10
2022-12-15T06:02:58.873Z,121.90
2022-12-15T06:03:58.801Z,117.80
2022-12-15T06:04:58.925Z,118.10
2022-12-15T06:05:58.769Z,114.10
2022-12-15T06:06:58.744Z,119.60
2022-12-15T06:07:58.730Z,116.60
2022-12-15T06:08:58.712Z,115.30
2022-12-15T06:09:58.693Z,113.90
2022-12-15T06:10:58.680Z,118.60
2022-12-15T06:11:58.661Z,117.80
2022-12-15T06:12:58.638Z,116.40
2022-12-15T06:13:58.624Z,121.20
2022-12-15T06:14:58.605Z,119.70
2022-12-15T06:15:58.604Z,117.20
2022-12-15T06:16:58.675Z,120.30
2022-12-15T06:17:58.553Z,116.50
2022-12-15T06:18:58.548Z,116.60
2022-12-15T06:19:58.513Z,116.00
2022-12-15T06:20:58.493Z,115.90
2022-12-15T06:21:58.478Z,110.50
2022-12-15T06:22:58.462Z,116.30
2022-12-15T06:23:58.439Z,110.80
2022-12-15T06:24:58.474Z,113.50
2022-12-15T06:25:58.407Z,112.80
2022-12-15T06:26:58.390Z,112.70
2022-12-15T06:28:01.735Z,115.60
2022-12-15T06:28:58.360Z,109.40
2022-12-15T06:29:58.340Z,114.60
2022-12-15T06:30:58.330Z,116.90
2022-12-15T06:31:58.301Z,116.80
2022-12-15T06:32:58.285Z,116.40
2022-12-15T06:34:02.050Z,114.90
2022-12-15T06:34:58.246Z,121.80
2022-12-15T06:35:58.235Z,116.10
2022-12-15T06:36:58.216Z,119.70
2022-12-15T06:37:58.191Z,115.10
2022-12-15T06:38:58.174Z,118.10
2022-12-15T06:39:58.157Z,119.00
2022-12-15T06:40:58.140Z,112.90
2022-12-15T06:41:58.122Z,115.00
2022-12-15T06:42:58.102Z,113.40
2022-12-15T06:43:58.114Z,117.50
2022-12-15T06:44:58.062Z,117.10
2022-12-15T06:45:58.047Z,112.40
2022-12-15T06:46:58.075Z,118.30
2022-12-15T06:48:01.480Z,117.70
2022-12-15T06:48:57.992Z,119.40
2022-12-15T06:49:57.973Z,117.50
2022-12-15T06:50:57.955Z,114.60
2022-12-15T06:51:57.940Z,111.70
2022-12-15T06:52:57.922Z,117.60
2022-12-15T06:53:57.902Z,114.50
2022-12-15T06:54:57.884Z,119.50
2022-12-15T06:55:57.869Z,121.60
2022-12-15T06:56:57.847Z,118.60
2022-12-15T06:57:57.860Z,120.70
2022-12-15T06:58:57.810Z,120.40
2022-12-15T06:59:57.800Z,115.70
2022-12-15T07:00:57.789Z,118.60
2022-12-15T07:01:57.909Z,118.90
2022-12-15T07:02:57.942Z,121.90
2022-12-15T07:03:57.970Z,112.60
2022-12-15T07:04:57.711Z,117.60
2022-12-15T07:05:57.687Z,118.30
2022-12-15T07:06:57.687Z,116.80
2022-12-15T07:07:57.650Z,117.80
2022-12-15T07:08:57.668Z,123.20
2022-12-15T07:09:57.614Z,124.90
2022-12-15T07:10:57.604Z,113.60
2022-12-15T07:11:57.587Z,123.20
2022-12-15T07:12:57.562Z,117.80
2022-12-15T07:13:57.657Z,124.50
2022-12-15T07:14:57.526Z,126.10
2022-12-15T07:15:57.525Z,122.90
2022-12-15T07:16:57.490Z,122.70
2022-12-15T07:17:57.471Z,122.80
2022-12-15T07:18:57.458Z,116.10
2022-12-15T07:19:57.433Z,119.40
2022-12-15T07:20:57.416Z,123.80
2022-12-15T07:21:57.407Z,123.90
2022-12-15T07:22:57.378Z,128.20
2022-12-15T07:23:58.249Z,127.40
2022-12-15T07:24:57.345Z,127.60
2022-12-15T07:25:57.324Z,127.20
2022-12-15T07:26:57.306Z,126.60
2022-12-15T07:27:57.295Z,123.10
2022-12-15T07:28:57.269Z,122.70
2022-12-15T07:29:57.252Z,121.70
2022-12-15T07:30:57.235Z,120.80
2022-12-15T07:31:57.291Z,120.70
2022-12-15T07:32:57.198Z,117.70
2022-12-15T07:33:57.188Z,121.70
2022-12-15T07:34:57.173Z,113.60
2022-12-15T07:35:57.152Z,117.90
2022-12-15T07:36:57.125Z,119.90
2022-12-15T07:37:57.111Z,112.90
2022-12-15T07:38:57.092Z,114.70
2022-12-15T07:39:57.075Z,111.10
2022-12-15T07:40:57.053Z,113.30
2022-12-15T07:41:57.044Z,110.10
2022-12-15T07:42:57.019Z,104.40
2022-12-15T07:43:57.002Z,105.80
2022-12-15T07:44:56.979Z,104.70
2022-12-15T07:45:57.011Z,105.40
2022-12-15T07:46:56.946Z,110.10
2022-12-15T07:47:56.928Z,109.50
2022-12-15T07:48:56.907Z,102.70
2022-12-15T07:49:56.890Z,108.60
2022-12-15T07:51:01.012Z,103.90
2022-12-15T07:51:56.853Z,105.00
2022-12-15T07:52:56.838Z,104.20
2022-12-15T07:53:56.816Z,107.10
2022-12-15T07:54:56.801Z,108.70
2022-12-15T07:56:07.470Z,104.80
2022-12-15T07:56:56.765Z,101.50
2022-12-15T07:57:56.760Z,97.80
2022-12-15T07:58:56.727Z,97.20
2022-12-15T07:59:56.706Z,95.10
2022-12-15T08:00:56.716Z,95.80
2022-12-15T08:01:56.958Z,93.60
2022-12-15T08:02:56.789Z,98.00
2022-12-15T08:03:56.792Z,95.10
2022-12-15T08:04:56.618Z,90.90
2022-12-15T08:06:00.396Z,93.50
2022-12-15T08:06:56.583Z,95.00
2022-12-15T08:07:56.564Z,95.40
2022-12-15T08:08:56.546Z,87.00
2022-12-15T08:09:56.535Z,88.90
2022-12-15T08:10:56.509Z,94.00
2022-12-15T08:11:56.491Z,97.50
2022-12-15T08:12:56.472Z,98.70
2022-12-15T08:14:05.731Z,91.50
2022-12-15T08:14:56.438Z,84.80
2022-12-15T08:15:56.576Z,88.70
2022-12-15T08:16:56.462Z,84.00
2022-12-15T08:17:56.385Z,86.60
2022-12-15T08:18:56.364Z,81.10
2022-12-15T08:19:58.851Z,84.60
2022-12-15T08:20:56.329Z,85.20
2022-12-15T08:21:56.309Z,83.80
2022-12-15T08:22:56.292Z,79.40
2022-12-15T08:23:56.274Z,81.80
2022-12-15T08:24:56.258Z,83.60
2022-12-15T08:25:56.243Z,79.20
2022-12-15T08:26:56.222Z,79.20
2022-12-15T08:27:56.201Z,81.60
2022-12-15T08:28:56.209Z,82.70
2022-12-15T08:29:56.165Z,80.10
2022-12-15T08:30:56.147Z,83.20
2022-12-15T08:31:56.256Z,84.50
2022-12-15T08:32:56.110Z,84.50
2022-12-15T08:33:56.093Z,85.70
2022-12-15T08:34:56.076Z,83.90
2022-12-15T08:35:57.265Z,79.30
2022-12-15T08:36:56.047Z,80.90
2022-12-15T08:37:59.785Z,81.20
2022-12-15T08:38:56.008Z,78.40
2022-12-15T08:39:56.008Z,78.50
2022-12-15T08:40:55.969Z,81.30
2022-12-15T08:41:55.950Z,82.10
2022-12-15T08:42:55.959Z,81.50
2022-12-15T08:43:55.919Z,80.10
2022-12-15T08:44:55.895Z,74.70
2022-12-15T08:45:55.932Z,75.50
2022-12-15T08:46:55.862Z,73.80
2022-12-15T08:47:55.862Z,75.10
2022-12-15T08:48:55.823Z,75.20
2022-12-15T08:49:55.806Z,76.90
2022-12-15T08:50:56.215Z,77.20
2022-12-15T08:51:55.771Z,70.90
2022-12-15T08:53:28.986Z,75.40
2022-12-15T08:53:55.739Z,74.90
2022-12-15T08:54:55.715Z,73.20
2022-12-15T08:55:55.698Z,77.00
2022-12-15T08:56:55.680Z,73.90
2022-12-15T08:57:55.661Z,73.10
2022-12-15T08:58:55.646Z,73.20
2022-12-15T08:59:55.628Z,78.20
2022-12-15T09:00:55.656Z,73.80
2022-12-15T09:01:55.696Z,75.50
2022-12-15T09:02:55.572Z,71.80
2022-12-15T09:03:55.645Z,73.30
2022-12-15T09:04:55.539Z,72.70
2022-12-15T09:05:55.616Z,73.40
2022-12-15T09:06:55.498Z,75.30
2022-12-15T09:07:55.482Z,75.80
2022-12-15T09:08:55.466Z,66.90
2022-12-15T09:09:55.451Z,68.40
2022-12-15T09:10:55.435Z,66.90
2022-12-15T09:11:55.415Z,67.90
2022-12-15T09:12:55.400Z,72.20
2022-12-15T09:13:55.381Z,71.90
2022-12-15T09:14:55.362Z,72.10
2022-12-15T09:16:11.430Z,69.30
2022-12-15T09:16:55.355Z,72.80
2022-12-15T09:17:55.313Z,75.60
2022-12-15T09:18:55.291Z,70.70
2022-12-15T09:19:55.272Z,66.20
2022-12-15T09:20:55.257Z,68.80
2022-12-15T09:21:55.236Z,66.60
2022-12-15T09:22:55.226Z,67.20
2022-12-15T09:23:55.218Z,67.50
2022-12-15T09:24:55.187Z,67.00
2022-12-15T09:25:55.243Z,68.20
2022-12-15T09:26:55.160Z,71.20
2022-12-15T09:27:55.142Z,69.90
2022-12-15T09:28:55.127Z,69.10
2022-12-15T09:29:55.095Z,68.90
2022-12-15T09:30:55.124Z,69.00
2022-12-15T09:31:55.167Z,70.40
2022-12-15T09:32:55.077Z,71.30
2022-12-15T09:33:55.026Z,69.10
2022-12-15T09:34:55.007Z,71.30
2022-12-15T09:35:54.992Z,70.50
2022-12-15T09:36:54.972Z,67.50
2022-12-15T09:37:54.961Z,62.90
2022-12-15T09:38:54.938Z,64.60
2022-12-15T09:39:54.920Z,64.80
2022-12-15T09:40:54.904Z,63.70
2022-12-15T09:41:54.903Z,64.70
2022-12-15T09:43:17.665Z,65.90
2022-12-15T09:43:55.619Z,64.00
2022-12-15T09:44:54.832Z,63.80
2022-12-15T09:45:54.842Z,59.40
2022-12-15T09:46:54.798Z,62.50
2022-12-15T09:47:54.781Z,63.20
2022-12-15T09:48:54.769Z,68.50
2022-12-15T09:49:54.747Z,62.90
2022-12-15T09:50:54.729Z,63.30
2022-12-15T09:51:54.714Z,64.10
2022-12-15T09:52:54.689Z,63.20
2022-12-15T09:53:56.100Z,65.60
2022-12-15T09:54:54.737Z,61.00
2022-12-15T09:55:54.645Z,60.70
2022-12-15T09:56:54.628Z,65.60
2022-12-15T09:57:54.607Z,61.10
2022-12-15T09:58:54.589Z,58.90
2022-12-15T09:59:54.570Z,59.00
2022-12-15T10:00:54.555Z,54.90
2022-12-15T10:01:54.564Z,54.80
2022-12-15T10:02:54.658Z,55.90
2022-12-15T10:03:54.618Z,53.90
2022-12-15T10:04:54.488Z,61.40
2022-12-15T10:06:54.453Z,54.80
2022-12-15T10:07:54.434Z,59.10
2022-12-15T10:08:54.429Z,56.50
2022-12-15T10:09:54.400Z,57.80
2022-12-15T10:10:54.389Z,56.00
2022-12-15T10:11:54.366Z,54.10
2022-12-15T10:13:04.865Z,54.50
2022-12-15T10:13:54.334Z,53.50
2022-12-15T10:14:54.316Z,54.50
2022-12-15T10:15:54.312Z,56.50
2022-12-15T10:16:54.284Z,53.20
2022-12-15T10:17:54.271Z,58.90
2022-12-15T10:19:54.232Z,57.60
2022-12-15T10:20:54.232Z,56.20
2022-12-15T10:21:54.196Z,54.30
2022-12-15T10:22:54.185Z,55.40
2022-12-15T10:23:54.234Z,60.10
2022-12-15T10:25:54.151Z,52.50
2022-12-15T10:26:54.119Z,55.30
2022-12-15T10:27:54.100Z,57.80
2022-12-15T10:28:54.082Z,54.50
2022-12-15T10:29:54.115Z,51.50
2022-12-15T10:30:54.100Z,58.70
2022-12-15T10:31:54.034Z,52.90
2022-12-15T10:32:54.013Z,53.80
2022-12-15T10:33:53.999Z,55.00
2022-12-15T10:34:54.042Z,51.70
2022-12-15T10:35:53.964Z,56.20
2022-12-15T10:36:53.948Z,56.50
2022-12-15T10:37:53.930Z,55.10
2022-12-15T10:38:53.914Z,57.60
2022-12-15T10:39:53.902Z,52.70
2022-12-15T10:40:53.881Z,56.60
2022-12-15T10:41:53.867Z,57.70
2022-12-15T10:42:53.852Z,58.50
2022-12-15T10:43:53.875Z,54.50
2022-12-15T10:44:53.818Z,59.30
2022-12-15T10:45:53.843Z,56.60
2022-12-15T10:46:53.825Z,55.50
2022-12-15T10:47:53.768Z,56.70
2022-12-15T10:48:53.997Z,62.00
2022-12-15T10:49:53.769Z,57.80
2022-12-15T10:50:53.716Z,57.40
2022-12-15T10:51:53.701Z,60.40
2022-12-15T10:52:53.684Z,56.70
2022-12-15T10:53:53.881Z,58.20
2022-12-15T10:54:53.647Z,57.10
2022-12-15T10:55:53.638Z,56.00
2022-12-15T10:56:53.617Z,55.00
2022-12-15T10:57:53.610Z,52.40
2022-12-15T10:58:53.814Z,52.20
2022-12-15T10:59:53.568Z,52.30
2022-12-15T11:00:53.560Z,54.50
2022-12-15T11:01:53.709Z,52.80
2022-12-15T11:02:53.745Z,54.10
2022-12-15T11:03:53.823Z,54.60
2022-12-15T11:04:53.487Z,53.30
2022-12-15T11:05:53.476Z,54.70
2022-12-15T11:06:53.451Z,56.40
2022-12-15T11:07:53.438Z,57.80
2022-12-15T11:08:53.417Z,54.30
2022-12-15T11:09:53.407Z,54.90
2022-12-15T11:10:53.390Z,51.90
2022-12-15T11:11:53.373Z,53.30
2022-12-15T11:12:58.342Z,54.60
2022-12-15T11:13:53.373Z,57.00
2022-12-15T11:14:53.327Z,54.20
2022-12-15T11:15:53.428Z,57.90
2022-12-15T11:16:53.291Z,56.40
2022-12-15T11:17:53.278Z,58.10
2022-12-15T11:18:53.254Z,57.10
2022-12-15T11:19:58.236Z,54.10
2022-12-15T11:20:53.224Z,55.20
2022-12-15T11:21:53.306Z,60.00
2022-12-15T11:22:53.193Z,60.10
2022-12-15T11:23:53.178Z,57.20
2022-12-15T11:24:53.161Z,56.20
2022-12-15T11:25:53.151Z,56.20
2022-12-15T11:26:53.131Z,56.30
2022-12-15T11:27:53.114Z,53.80
2022-12-15T11:28:53.103Z,55.90
2022-12-15T11:29:53.104Z,59.00
2022-12-15T11:30:53.103Z,57.30
2022-12-15T11:31:53.051Z,55.60
2022-12-15T11:32:53.033Z,58.80
2022-12-15T11:33:53.016Z,54.20
2022-12-15T11:34:52.998Z,55.00
2022-12-15T11:35:52.982Z,57.10
2022-12-15T11:36:52.972Z,54.50
2022-12-15T11:37:52.952Z,56.50
2022-12-15T11:38:52.987Z,62.40
2022-12-15T11:39:52.918Z,56.60
2022-12-15T11:40:52.902Z,60.70
2022-12-15T11:41:52.887Z,57.30
2022-12-15T11:42:52.875Z,53.60
2022-12-15T11:43:52.856Z,54.30
2022-12-15T11:44:52.853Z,52.20
2022-12-15T11:45:52.903Z,51.80
2022-12-15T11:46:52.810Z,54.40
2022-12-15T11:47:52.799Z,64.90
2022-12-15T11:48:52.809Z,60.80
2022-12-15T11:49:52.764Z,57.50
2022-12-15T11:50:52.744Z,58.70
2022-12-15T11:51:52.735Z,58.10
2022-12-15T11:52:52.716Z,56.60
2022-12-15T11:53:52.719Z,61.00
2022-12-15T11:54:52.685Z,54.40
2022-12-15T11:55:52.669Z,59.50
2022-12-15T11:56:52.655Z,59.50
2022-12-15T11:57:52.636Z,59.00
2022-12-15T11:58:52.620Z,55.30
2022-12-15T11:59:52.606Z,64.00
2022-12-15T12:00:52.588Z,67.70
2022-12-15T12:01:58.842Z,56.60
2022-12-15T12:02:52.610Z,59.90
2022-12-15T12:03:52.544Z,59.20
2022-12-15T12:04:52.539Z,57.80
2022-12-15T12:05:52.512Z,58.40
2022-12-15T12:06:52.505Z,53.70
2022-12-15T12:07:52.481Z,55.90
2022-12-15T12:08:52.466Z,57.20
2022-12-15T12:09:52.449Z,61.70
2022-12-15T12:10:52.449Z,53.60
2022-12-15T12:11:52.416Z,58.70
2022-12-15T12:12:52.402Z,59.90
2022-12-15T12:13:52.392Z,56.00
2022-12-15T12:14:52.371Z,63.70
2022-12-15T12:15:52.423Z,72.10
2022-12-15T12:16:52.340Z,53.00
2022-12-15T12:17:52.326Z,54.70
2022-12-15T12:18:52.401Z,53.10
2022-12-15T12:19:52.295Z,55.20
2022-12-15T12:20:52.276Z,54.10
2022-12-15T12:21:52.262Z,55.60
2022-12-15T12:22:52.249Z,55.50
2022-12-15T12:23:52.235Z,58.50
2022-12-15T12:24:52.218Z,53.70
2022-12-15T12:25:52.204Z,56.50
2022-12-15T12:26:52.186Z,58.00
2022-12-15T12:27:52.167Z,57.10
2022-12-15T12:28:52.154Z,54.30
2022-12-15T12:29:52.137Z,52.60
2022-12-15T12:30:52.120Z,52.50
2022-12-15T12:31:52.107Z,55.00
2022-12-15T12:32:52.091Z,53.90
2022-12-15T12:33:52.230Z,57.00
2022-12-15T12:34:52.058Z,55.20
2022-12-15T12:35:52.042Z,54.00
2022-12-15T12:36:52.026Z,55.40
2022-12-15T12:37:52.007Z,52.10
2022-12-15T12:38:51.998Z,49.60
2022-12-15T12:39:51.979Z,53.50
2022-12-15T12:40:51.963Z,51.30